Time;durP1;ratioP1;P1;durP2;ratioP2;P2;SDS_P1;SDS_P2;PMS_P1;PMS_P2;Temp;Humidity;BMP_temperature;BMP_pressure;BME280_temperature;BME280_humidity;BME280_pressure;Samples;Min_cycle;Max_cycle;Signal;HPM_P1;HPM_P2
2023/09/26 00:01:06;;;;;;;13.35;10.10;;;16.20;99.90;;;;;;5069950;28;20025;-76
2023/09/26 00:03:32;;;;;;;13.05;9.45;;;16.20;99.90;;;;;;5072587;28;20033;-75
2023/09/26 00:05:58;;;;;;;17.48;9.18;;;16.10;99.90;;;;;;5065790;28;20021;-75
2023/09/26 00:08:23;;;;;;;11.10;8.35;;;16.00;99.90;;;;;;5068021;28;20017;-75
2023/09/26 00:10:49;;;;;;;11.57;9.95;;;16.00;99.90;;;;;;5069551;28;20110;-75
2023/09/26 00:13:15;;;;;;;12.45;8.43;;;16.00;99.90;;;;;;5065684;28;20469;-75
2023/09/26 00:15:42;;;;;;;10.98;7.28;;;16.00;99.90;;;;;;5071926;28;20032;-75
2023/09/26 00:18:08;;;;;;;10.77;8.57;;;16.00;99.90;;;;;;5074839;28;20100;-77
2023/09/26 00:20:38;;;;;;;12.10;7.15;;;16.00;99.90;;;;;;5071552;28;20112;-74
2023/09/26 00:23:05;;;;;;;12.30;7.47;;;15.90;99.90;;;;;;5066091;28;20039;-76
2023/09/26 00:25:30;;;;;;;12.00;7.03;;;15.90;99.90;;;;;;5067486;28;20032;-75
2023/09/26 00:27:57;;;;;;;10.55;7.68;;;15.90;99.90;;;;;;5073512;28;20362;-76
2023/09/26 00:30:26;;;;;;;11.63;8.35;;;15.90;99.90;;;;;;5069125;28;20024;-76
2023/09/26 00:32:52;;;;;;;13.35;9.13;;;15.90;99.90;;;;;;5064280;28;20017;-75
2023/09/26 00:35:19;;;;;;;14.45;9.18;;;15.90;99.90;;;;;;5071034;28;20032;-74
2023/09/26 00:37:48;;;;;;;13.95;9.60;;;15.90;99.90;;;;;;5043521;28;20366;-75
2023/09/26 00:40:16;;;;;;;13.77;9.35;;;15.90;99.90;;;;;;5070129;28;20031;-75
2023/09/26 00:42:43;;;;;;;13.50;9.63;;;15.90;99.90;;;;;;5070017;28;20040;-75
2023/09/26 00:45:09;;;;;;;13.30;9.80;;;15.90;99.90;;;;;;5068652;28;20024;-75
2023/09/26 00:47:36;;;;;;;13.45;10.15;;;15.80;99.90;;;;;;5072418;28;20032;-75
2023/09/26 00:50:10;;;;;;;12.70;9.80;;;15.70;99.90;;;;;;5048471;28;20028;-75
2023/09/26 00:52:36;;;;;;;12.10;8.95;;;15.70;99.90;;;;;;5064503;28;20016;-74
2023/09/26 00:55:04;;;;;;;11.60;7.97;;;15.70;99.90;;;;;;5068838;28;20127;-76
2023/09/26 00:57:33;;;;;;;12.85;7.75;;;15.70;99.90;;;;;;5067134;28;20028;-75
2023/09/26 01:00:01;;;;;;;10.75;8.10;;;15.70;99.90;;;;;;5071978;28;20030;-77
2023/09/26 01:02:27;;;;;;;12.18;8.40;;;15.70;99.90;;;;;;5051461;28;20035;-75
2023/09/26 01:04:53;;;;;;;8.88;7.78;;;15.70;99.90;;;;;;5055990;28;20025;-75
2023/09/26 01:07:19;;;;;;;10.75;8.23;;;15.70;99.90;;;;;;5072517;28;20430;-74
2023/09/26 01:09:46;;;;;;;12.27;8.68;;;15.60;99.90;;;;;;5069322;28;20021;-74
2023/09/26 01:12:11;;;;;;;10.02;7.88;;;15.60;99.90;;;;;;5071541;28;20032;-74
2023/09/26 01:14:37;;;;;;;11.05;8.38;;;15.50;99.90;;;;;;5067411;28;20033;-74
2023/09/26 01:17:03;;;;;;;10.50;7.43;;;15.50;99.90;;;;;;5068474;28;20039;-74
2023/09/26 01:19:29;;;;;;;11.98;8.25;;;15.50;99.90;;;;;;5070878;28;20036;-75
2023/09/26 01:21:55;;;;;;;16.05;9.43;;;15.50;99.90;;;;;;5068877;28;20025;-74
2023/09/26 01:24:21;;;;;;;9.32;8.07;;;15.40;99.90;;;;;;5065512;28;20377;-74
2023/09/26 01:26:47;;;;;;;12.38;8.23;;;15.40;99.90;;;;;;5046959;28;20025;-75
2023/09/26 01:29:13;;;;;;;14.13;8.90;;;15.40;99.90;;;;;;5066002;28;20385;-75
2023/09/26 01:31:38;;;;;;;10.18;8.43;;;15.40;99.90;;;;;;5072914;28;20033;-74
2023/09/26 01:34:04;;;;;;;12.57;8.15;;;15.30;99.90;;;;;;5069623;28;20074;-75
2023/09/26 01:36:31;;;;;;;13.73;8.55;;;15.30;99.90;;;;;;5066402;28;20039;-74
2023/09/26 01:38:57;;;;;;;11.52;9.13;;;15.30;99.90;;;;;;5069956;28;20025;-75
2023/09/26 01:41:24;;;;;;;10.82;9.65;;;15.20;99.90;;;;;;5071349;28;20024;-74
2023/09/26 01:43:50;;;;;;;9.75;8.68;;;15.30;99.90;;;;;;5067959;28;20377;-75
2023/09/26 01:46:18;;;;;;;13.40;9.65;;;15.30;99.90;;;;;;5048582;28;20469;-75
2023/09/26 01:48:44;;;;;;;12.38;8.88;;;15.30;99.90;;;;;;5070212;28;20054;-75
2023/09/26 01:51:10;;;;;;;11.18;7.53;;;15.30;99.90;;;;;;5069479;28;20055;-75
2023/09/26 01:53:35;;;;;;;9.75;7.88;;;15.30;99.90;;;;;;5068699;28;20093;-75
2023/09/26 01:56:02;;;;;;;12.05;6.95;;;15.30;99.90;;;;;;5070473;28;20045;-75
2023/09/26 01:58:27;;;;;;;12.00;7.63;;;15.20;99.90;;;;;;5047590;28;20028;-75
2023/09/26 02:00:53;;;;;;;8.95;7.55;;;15.20;99.90;;;;;;5069250;28;20036;-75
2023/09/26 02:03:19;;;;;;;10.77;8.00;;;15.30;99.90;;;;;;5067226;28;20112;-76
2023/09/26 02:05:45;;;;;;;10.48;7.18;;;15.30;99.90;;;;;;5068399;28;20388;-74
2023/09/26 02:08:12;;;;;;;12.75;8.30;;;15.30;99.90;;;;;;5067526;28;20017;-75
2023/09/26 02:10:38;;;;;;;11.65;7.95;;;15.30;99.90;;;;;;5069375;28;20021;-76
2023/09/26 02:13:04;;;;;;;14.65;7.70;;;15.30;99.90;;;;;;5067659;28;20071;-75
2023/09/26 02:15:30;;;;;;;15.27;8.70;;;15.20;99.90;;;;;;5066345;28;20029;-75
2023/09/26 02:17:55;;;;;;;17.40;10.00;;;15.20;99.90;;;;;;5068193;28;20025;-75
2023/09/26 02:20:21;;;;;;;16.50;10.10;;;15.20;99.90;;;;;;5068890;28;20021;-75
2023/09/26 02:22:49;;;;;;;11.40;10.23;;;15.20;99.90;;;;;;5067699;28;20107;-76
2023/09/26 02:25:16;;;;;;;11.00;8.48;;;15.20;99.90;;;;;;5064680;28;20032;-74
2023/09/26 02:27:43;;;;;;;10.73;8.35;;;15.10;99.90;;;;;;5069301;28;20115;-75
2023/09/26 02:30:11;;;;;;;10.57;7.72;;;15.00;99.90;;;;;;5053605;28;20016;-75
2023/09/26 02:32:37;;;;;;;12.02;8.10;;;15.00;99.90;;;;;;5068452;28;20564;-75
2023/09/26 02:35:06;;;;;;;13.88;8.85;;;15.00;99.90;;;;;;5065351;28;20036;-76
2023/09/26 02:37:31;;;;;;;12.07;7.88;;;15.00;99.90;;;;;;5069488;28;20078;-76
2023/09/26 02:39:57;;;;;;;10.25;6.95;;;15.10;99.90;;;;;;5071171;28;20024;-75
2023/09/26 02:42:23;;;;;;;13.68;8.52;;;15.10;99.90;;;;;;5068720;28;20054;-75
2023/09/26 02:44:48;;;;;;;14.07;8.00;;;15.10;99.90;;;;;;5048733;28;20024;-75
2023/09/26 02:47:14;;;;;;;9.68;8.65;;;15.10;99.90;;;;;;5066945;28;20040;-75
2023/09/26 02:49:41;;;;;;;9.27;8.27;;;15.10;99.90;;;;;;5070444;28;20411;-73
2023/09/26 02:52:08;;;;;;;13.00;8.75;;;15.00;99.90;;;;;;5073335;28;20025;-74
2023/09/26 02:54:33;;;;;;;11.57;9.43;;;15.00;99.90;;;;;;5070500;28;20037;-75
2023/09/26 02:56:59;;;;;;;16.55;9.77;;;15.00;99.90;;;;;;5077574;28;20032;-74
2023/09/26 02:59:25;;;;;;;12.82;10.02;;;15.00;99.90;;;;;;5074856;28;20541;-75
2023/09/26 03:01:52;;;;;;;13.70;9.02;;;15.00;99.90;;;;;;5069232;28;20029;-75
2023/09/26 03:04:18;;;;;;;14.38;9.93;;;15.00;99.90;;;;;;5055812;28;20163;-74
2023/09/26 03:06:43;;;;;;;13.38;8.45;;;15.00;99.90;;;;;;5070788;28;20535;-74
2023/09/26 03:09:09;;;;;;;12.60;8.73;;;15.00;99.90;;;;;;5072353;28;20431;-74
2023/09/26 03:11:35;;;;;;;12.48;9.77;;;15.00;99.90;;;;;;5071430;28;20109;-74
2023/09/26 03:14:01;;;;;;;15.75;10.43;;;14.90;99.90;;;;;;5070862;28;20031;-75
2023/09/26 03:16:27;;;;;;;16.20;10.15;;;14.90;99.90;;;;;;5071096;28;20063;-75
2023/09/26 03:18:54;;;;;;;12.38;9.98;;;14.90;99.90;;;;;;5047652;28;20029;-76
2023/09/26 03:21:20;;;;;;;16.92;8.65;;;14.90;99.90;;;;;;5048828;28;20393;-76
2023/09/26 03:23:46;;;;;;;11.55;9.05;;;14.80;99.90;;;;;;5074043;28;20048;-76
2023/09/26 03:26:14;;;;;;;10.65;8.13;;;14.90;99.90;;;;;;5070571;28;20669;-77
2023/09/26 03:28:41;;;;;;;14.95;8.35;;;14.90;99.90;;;;;;5072794;28;20029;-76
2023/09/26 03:31:10;;;;;;;14.75;8.70;;;14.90;99.90;;;;;;5072584;28;20029;-75
2023/09/26 03:33:36;;;;;;;12.52;8.95;;;14.80;99.90;;;;;;5070322;28;20051;-75
2023/09/26 03:36:03;;;;;;;10.73;8.90;;;14.80;99.90;;;;;;5071554;28;20028;-75
2023/09/26 03:38:32;;;;;;;11.95;8.30;;;14.70;99.90;;;;;;5072310;28;20378;-75
2023/09/26 03:41:02;;;;;;;14.18;7.93;;;14.70;99.90;;;;;;5071968;28;20127;-75
2023/09/26 03:43:29;;;;;;;18.10;10.00;;;14.70;99.90;;;;;;5075747;28;20025;-75
2023/09/26 03:46:05;;;;;;;14.65;8.13;;;14.80;99.90;;;;;;5071491;28;20393;-75
2023/09/26 03:48:31;;;;;;;11.43;7.63;;;14.80;99.90;;;;;;5072225;28;20029;-75
2023/09/26 03:51:13;;;;;;;15.10;7.68;;;14.80;99.90;;;;;;5074195;28;20051;-75
2023/09/26 03:53:40;;;;;;;15.20;8.50;;;14.80;99.90;;;;;;5069269;28;20021;-76
2023/09/26 03:56:07;;;;;;;12.57;8.77;;;14.70;99.90;;;;;;5073061;28;20083;-75
2023/09/26 03:58:34;;;;;;;13.25;8.55;;;14.70;99.90;;;;;;5068046;28;20028;-74
2023/09/26 04:01:09;;;;;;;10.07;7.70;;;14.70;99.90;;;;;;5053960;28;20016;-75
2023/09/26 04:03:36;;;;;;;11.02;7.88;;;14.70;99.90;;;;;;5073205;28;20017;-76
2023/09/26 04:06:02;;;;;;;11.30;8.27;;;14.70;99.90;;;;;;5073112;28;20128;-75
2023/09/26 04:08:28;;;;;;;15.30;9.15;;;14.70;99.90;;;;;;5072403;28;20116;-75
2023/09/26 04:10:53;;;;;;;15.07;8.98;;;14.60;99.90;;;;;;5077415;28;20370;-75
2023/09/26 04:13:19;;;;;;;11.52;7.75;;;14.60;99.90;;;;;;5072287;28;20017;-75
2023/09/26 04:15:44;;;;;;;9.95;7.82;;;14.70;99.90;;;;;;5067258;28;20789;-75
2023/09/26 04:18:10;;;;;;;10.63;8.27;;;14.60;99.90;;;;;;5075186;28;20028;-75
2023/09/26 04:20:36;;;;;;;10.25;7.22;;;14.60;99.90;;;;;;5076417;28;20500;-76
2023/09/26 04:23:03;;;;;;;12.27;7.97;;;14.60;99.90;;;;;;5070991;28;20162;-75
2023/09/26 04:25:30;;;;;;;12.35;7.97;;;14.60;99.90;;;;;;5066312;28;20025;-76
2023/09/26 04:27:56;;;;;;;13.00;9.75;;;14.60;99.90;;;;;;5065871;28;20043;-75
2023/09/26 04:30:23;;;;;;;11.30;9.38;;;14.40;99.90;;;;;;5069944;28;20701;-74
2023/09/26 04:32:49;;;;;;;11.63;8.13;;;14.10;99.90;;;;;;5072752;28;20021;-75
2023/09/26 04:35:15;;;;;;;11.00;8.20;;;14.10;99.90;;;;;;5070204;28;20057;-75
2023/09/26 04:37:41;;;;;;;11.93;9.27;;;14.20;99.90;;;;;;5071048;28;20093;-75
2023/09/26 04:40:11;;;;;;;12.55;8.55;;;14.20;99.90;;;;;;5070221;28;20517;-75
2023/09/26 04:42:42;;;;;;;14.30;9.38;;;14.20;99.90;;;;;;5067018;28;20064;-75
2023/09/26 04:45:08;;;;;;;8.98;7.97;;;14.20;99.90;;;;;;5064736;28;20111;-75
2023/09/26 04:47:35;;;;;;;14.18;7.40;;;14.10;99.90;;;;;;5068815;28;20044;-75
2023/09/26 04:50:01;;;;;;;9.10;8.18;;;14.00;99.90;;;;;;5069661;28;20488;-75
2023/09/26 04:52:27;;;;;;;15.55;8.90;;;14.10;99.90;;;;;;5072315;28;20036;-75
2023/09/26 04:54:53;;;;;;;12.88;8.25;;;14.10;99.90;;;;;;5069000;28;20048;-76
2023/09/26 04:57:19;;;;;;;11.25;8.13;;;14.00;99.90;;;;;;5069340;28;20555;-75
2023/09/26 04:59:45;;;;;;;13.23;9.15;;;14.00;99.90;;;;;;5070437;28;20175;-75
2023/09/26 05:02:10;;;;;;;15.60;10.40;;;14.10;99.90;;;;;;5069210;28;20028;-75
2023/09/26 05:04:36;;;;;;;13.35;9.48;;;14.10;99.90;;;;;;5050659;28;20039;-75
2023/09/26 05:07:02;;;;;;;11.88;9.38;;;14.10;99.90;;;;;;5062964;28;20530;-75
2023/09/26 05:09:27;;;;;;;15.52;9.43;;;14.00;99.90;;;;;;5068463;28;20126;-76
2023/09/26 05:11:53;;;;;;;15.13;10.00;;;14.00;99.90;;;;;;5068772;28;20029;-77
2023/09/26 05:14:19;;;;;;;15.43;9.82;;;14.00;99.90;;;;;;5068066;28;20033;-75
2023/09/26 05:16:44;;;;;;;13.00;10.40;;;14.00;99.90;;;;;;5069719;28;20095;-75
2023/09/26 05:19:10;;;;;;;15.60;11.80;;;14.00;99.90;;;;;;5070430;28;20025;-77
2023/09/26 05:21:36;;;;;;;20.02;12.07;;;14.00;99.90;;;;;;5069717;28;20168;-75
2023/09/26 05:24:01;;;;;;;17.55;10.40;;;14.00;99.90;;;;;;5067777;28;20017;-75
2023/09/26 05:26:28;;;;;;;20.77;11.13;;;14.00;99.90;;;;;;5071215;28;20814;-75
2023/09/26 05:28:53;;;;;;;21.70;10.27;;;14.10;99.90;;;;;;5069598;28;20044;-75
2023/09/26 05:31:19;;;;;;;19.08;10.63;;;14.10;99.90;;;;;;5063455;28;20488;-77
2023/09/26 05:33:45;;;;;;;16.70;9.38;;;14.10;99.90;;;;;;5071944;28;20536;-75
2023/09/26 05:36:10;;;;;;;17.98;9.85;;;14.20;99.90;;;;;;5066108;28;20033;-73
2023/09/26 05:38:36;;;;;;;15.80;9.45;;;14.20;99.90;;;;;;5069627;28;20427;-76
2023/09/26 05:41:02;;;;;;;19.45;10.27;;;14.20;99.90;;;;;;5065645;28;20028;-77
2023/09/26 05:43:28;;;;;;;24.65;11.27;;;14.10;99.90;;;;;;5048992;28;20025;-75
2023/09/26 05:45:54;;;;;;;16.73;10.25;;;14.10;99.90;;;;;;5069765;28;20024;-77
2023/09/26 05:48:20;;;;;;;12.60;9.57;;;14.10;99.90;;;;;;5051862;28;20480;-78
2023/09/26 05:50:46;;;;;;;17.13;10.27;;;14.20;99.90;;;;;;5069101;28;20131;-75
2023/09/26 05:53:12;;;;;;;11.77;9.80;;;14.20;99.90;;;;;;5066170;28;20117;-75
2023/09/26 05:55:38;;;;;;;14.45;9.63;;;14.20;99.90;;;;;;5068526;28;20041;-76
2023/09/26 05:58:04;;;;;;;13.40;9.88;;;14.20;99.90;;;;;;5070882;28;20020;-76
2023/09/26 06:00:30;;;;;;;13.05;9.88;;;14.10;99.90;;;;;;5066483;28;20396;-76
2023/09/26 06:02:56;;;;;;;12.85;8.95;;;14.00;99.90;;;;;;5064032;28;20017;-77
2023/09/26 06:05:21;;;;;;;14.57;10.05;;;14.10;99.90;;;;;;5070861;28;20060;-75
2023/09/26 06:07:49;;;;;;;19.15;9.60;;;14.10;99.90;;;;;;5063186;28;20532;-78
2023/09/26 06:10:15;;;;;;;13.63;8.90;;;14.10;99.90;;;;;;5051389;28;20032;-75
2023/09/26 06:12:41;;;;;;;13.75;8.52;;;14.20;99.90;;;;;;5046815;28;20350;-76
2023/09/26 06:15:09;;;;;;;18.00;9.43;;;14.30;99.90;;;;;;5064981;28;20036;-76
2023/09/26 06:17:35;;;;;;;14.05;9.18;;;14.30;99.90;;;;;;5068340;28;20020;-76
2023/09/26 06:20:01;;;;;;;15.43;9.30;;;14.30;99.90;;;;;;5064275;28;20035;-76
2023/09/26 06:22:26;;;;;;;15.82;10.25;;;14.30;99.90;;;;;;5046195;28;20113;-78
2023/09/26 06:24:52;;;;;;;11.98;9.45;;;14.20;99.90;;;;;;5068123;28;20031;-76
2023/09/26 06:27:18;;;;;;;18.33;10.07;;;14.30;99.90;;;;;;5044978;28;20404;-77
2023/09/26 06:29:43;;;;;;;11.57;9.77;;;14.30;99.90;;;;;;5072440;28;20024;-77
2023/09/26 06:32:10;;;;;;;12.18;10.07;;;14.30;99.90;;;;;;5071839;28;20044;-78
2023/09/26 06:34:39;;;;;;;14.32;9.40;;;14.40;99.90;;;;;;5065402;28;20024;-76
2023/09/26 06:37:05;;;;;;;13.10;8.40;;;14.40;99.90;;;;;;5069342;28;20023;-78
2023/09/26 06:39:31;;;;;;;15.25;8.30;;;14.50;99.90;;;;;;5070585;28;20025;-75
2023/09/26 06:41:57;;;;;;;12.07;8.35;;;14.50;99.90;;;;;;5067315;28;20036;-75
2023/09/26 06:44:23;;;;;;;12.85;8.73;;;14.60;99.90;;;;;;5068051;28;20032;-76
2023/09/26 06:46:48;;;;;;;16.98;10.75;;;14.50;99.90;;;;;;5069337;28;20042;-76
2023/09/26 06:49:14;;;;;;;34.90;12.32;;;14.70;99.90;;;;;;5054053;28;20074;-76
2023/09/26 06:51:40;;;;;;;23.02;10.60;;;14.70;99.90;;;;;;5067623;28;20032;-75
2023/09/26 06:54:06;;;;;;;32.67;10.73;;;14.70;99.90;;;;;;5062878;28;20082;-78
2023/09/26 06:56:32;;;;;;;28.52;12.55;;;14.70;99.90;;;;;;5069475;28;20033;-76
2023/09/26 06:58:57;;;;;;;22.52;10.65;;;14.70;99.90;;;;;;5069091;28;20488;-76
2023/09/26 07:01:23;;;;;;;22.02;12.07;;;14.80;99.90;;;;;;5061999;28;20103;-77
2023/09/26 07:03:49;;;;;;;18.98;11.30;;;14.80;99.90;;;;;;5062830;28;20107;-75
2023/09/26 07:06:16;;;;;;;17.75;10.52;;;14.90;99.90;;;;;;5071299;28;20472;-75
2023/09/26 07:08:46;;;;;;;16.30;12.15;;;14.90;99.90;;;;;;5064491;28;20028;-76
2023/09/26 07:11:12;;;;;;;19.88;11.63;;;15.00;99.90;;;;;;5054106;28;20389;-76
2023/09/26 07:13:39;;;;;;;23.63;10.20;;;15.10;99.90;;;;;;5054258;28;20434;-79
2023/09/26 07:16:06;;;;;;;15.32;9.57;;;15.00;99.90;;;;;;5064271;28;20040;-76
2023/09/26 07:18:33;;;;;;;18.38;11.25;;;15.10;99.90;;;;;;5072675;28;20384;-75
2023/09/26 07:21:04;;;;;;;16.08;10.57;;;15.20;99.90;;;;;;5070711;28;20056;-77
2023/09/26 07:23:29;;;;;;;22.02;12.57;;;15.30;99.90;;;;;;5068939;28;20476;-78
2023/09/26 07:26:08;;;;;;;15.82;11.57;;;15.30;99.90;;;;;;5064252;28;20029;-76
2023/09/26 07:28:33;;;;;;;15.52;10.80;;;15.40;99.90;;;;;;5071746;28;20038;-77
2023/09/26 07:30:59;;;;;;;16.08;11.15;;;15.50;99.90;;;;;;5070443;28;20100;-75
2023/09/26 07:33:26;;;;;;;15.70;10.90;;;15.50;99.90;;;;;;5071143;28;20040;-76
2023/09/26 07:35:52;;;;;;;13.60;10.75;;;15.60;99.90;;;;;;5066417;28;20115;-78
2023/09/26 07:38:18;;;;;;;16.67;12.10;;;15.80;99.90;;;;;;5070692;28;20032;-77
2023/09/26 07:40:44;;;;;;;16.48;9.73;;;15.80;99.90;;;;;;5066956;28;20107;-77
2023/09/26 07:43:09;;;;;;;18.40;10.93;;;15.90;99.90;;;;;;5059206;28;20024;-77
2023/09/26 07:45:39;;;;;;;15.48;10.70;;;15.90;99.90;;;;;;5066382;28;20024;-76
2023/09/26 07:48:05;;;;;;;15.40;10.82;;;16.10;99.90;;;;;;5071312;28;20013;-76
2023/09/26 07:50:31;;;;;;;13.10;9.95;;;16.10;99.90;;;;;;5067417;28;20044;-76
2023/09/26 07:52:56;;;;;;;13.90;9.02;;;16.30;99.90;;;;;;5071781;28;20499;-77
2023/09/26 07:55:24;;;;;;;14.15;9.25;;;16.30;99.90;;;;;;5070510;28;20036;-77
2023/09/26 07:57:50;;;;;;;16.58;8.13;;;16.40;99.90;;;;;;5070647;28;20025;-77
2023/09/26 08:00:15;;;;;;;15.75;8.63;;;16.40;99.90;;;;;;5064214;28;20119;-77
2023/09/26 08:02:41;;;;;;;14.23;8.40;;;16.40;99.90;;;;;;5071692;28;20029;-75
2023/09/26 08:05:07;;;;;;;13.30;8.55;;;16.60;99.90;;;;;;5065430;28;20481;-76
2023/09/26 08:07:33;;;;;;;14.15;7.43;;;16.60;99.90;;;;;;5070446;28;20028;-78
2023/09/26 08:10:00;;;;;;;12.05;7.13;;;16.70;99.90;;;;;;5068392;28;20037;-77
2023/09/26 08:12:30;;;;;;;11.07;7.38;;;16.80;99.90;;;;;;5068993;28;20372;-77
2023/09/26 08:14:56;;;;;;;13.82;7.95;;;16.90;99.90;;;;;;5068977;28;20029;-77
2023/09/26 08:17:22;;;;;;;11.20;8.23;;;17.10;99.90;;;;;;5064166;28;20096;-77
2023/09/26 08:19:48;;;;;;;11.38;6.85;;;17.20;99.90;;;;;;5067159;28;20084;-78
2023/09/26 08:22:14;;;;;;;11.38;7.70;;;17.30;99.90;;;;;;5061547;28;20033;-77
2023/09/26 08:24:40;;;;;;;12.52;7.18;;;17.30;99.90;;;;;;5066108;28;20086;-77
2023/09/26 08:27:06;;;;;;;10.25;6.25;;;17.30;99.90;;;;;;5066235;28;20033;-76
2023/09/26 08:29:31;;;;;;;8.00;6.82;;;17.40;99.90;;;;;;5067170;28;20025;-74
2023/09/26 08:31:58;;;;;;;8.65;6.60;;;17.50;99.90;;;;;;5064242;28;20529;-77
2023/09/26 08:34:24;;;;;;;10.63;6.70;;;17.60;99.90;;;;;;5065494;28;20058;-77
2023/09/26 08:36:51;;;;;;;22.30;6.88;;;17.70;99.90;;;;;;5063369;28;20048;-76
2023/09/26 08:39:17;;;;;;;12.13;6.82;;;17.70;99.90;;;;;;5064721;28;20028;-77
2023/09/26 08:41:48;;;;;;;7.57;6.45;;;17.80;99.90;;;;;;5068164;28;20388;-78
2023/09/26 08:44:14;;;;;;;8.90;6.70;;;17.80;99.90;;;;;;5047494;28;20500;-78
2023/09/26 08:46:41;;;;;;;8.95;6.63;;;17.90;99.90;;;;;;5064839;28;20017;-78
2023/09/26 08:49:08;;;;;;;8.02;5.78;;;18.00;99.90;;;;;;5073186;28;20032;-78
2023/09/26 08:51:34;;;;;;;7.57;6.78;;;18.10;99.90;;;;;;5064899;28;20026;-78
2023/09/26 08:54:00;;;;;;;9.20;5.97;;;18.20;99.90;;;;;;5061753;28;20538;-77
2023/09/26 08:56:25;;;;;;;6.95;4.78;;;18.20;99.90;;;;;;5066490;28;20542;-76
2023/09/26 08:58:54;;;;;;;6.78;5.75;;;18.20;99.90;;;;;;5070333;28;20055;-76
2023/09/26 09:01:20;;;;;;;7.30;6.13;;;18.40;99.90;;;;;;5065071;28;20476;-78
2023/09/26 09:03:46;;;;;;;6.82;5.28;;;18.40;99.90;;;;;;5067020;28;20028;-76
2023/09/26 09:06:13;;;;;;;9.95;5.32;;;18.50;99.90;;;;;;5065711;28;20016;-79
2023/09/26 09:08:39;;;;;;;8.85;5.07;;;18.60;99.90;;;;;;5066365;28;20051;-79
2023/09/26 09:11:05;;;;;;;8.15;5.13;;;18.70;99.90;;;;;;5061671;28;20048;-79
2023/09/26 09:13:33;;;;;;;9.30;5.38;;;18.70;99.90;;;;;;5066392;28;20484;-79
2023/09/26 09:16:09;;;;;;;9.35;5.00;;;18.80;99.90;;;;;;5046426;28;20032;-78
2023/09/26 09:18:36;;;;;;;6.97;5.00;;;19.00;99.90;;;;;;5069155;28;20107;-79
2023/09/26 09:21:32;;;;;;;12.88;5.13;;;19.20;99.90;;;;;;5064305;28;20024;-79
2023/09/26 09:24:02;;;;;;;7.18;5.20;;;19.30;99.90;;;;;;5070647;28;20027;-79
2023/09/26 09:26:31;;;;;;;8.65;4.45;;;19.40;99.90;;;;;;5046447;28;20025;-77
2023/09/26 09:28:59;;;;;;;6.05;4.57;;;19.60;99.90;;;;;;5066884;28;20050;-79
2023/09/26 09:31:27;;;;;;;7.65;4.07;;;19.70;99.90;;;;;;5064286;28;20107;-77
2023/09/26 09:33:55;;;;;;;6.03;3.63;;;19.80;99.90;;;;;;5071457;28;20082;-77
2023/09/26 09:36:21;;;;;;;6.05;4.07;;;19.90;99.90;;;;;;5072629;28;20032;-80
2023/09/26 09:38:47;;;;;;;7.35;4.40;;;20.00;99.90;;;;;;5074230;28;20086;-79
2023/09/26 09:41:12;;;;;;;6.45;4.20;;;20.20;99.90;;;;;;5069667;28;20025;-79
2023/09/26 09:43:38;;;;;;;5.55;3.75;;;20.30;99.90;;;;;;5065522;28;20029;-79
2023/09/26 09:46:08;;;;;;;7.82;3.97;;;20.20;99.90;;;;;;5070554;28;20021;-79
2023/09/26 09:48:42;;;;;;;6.30;3.97;;;20.40;99.90;;;;;;5069611;28;20024;-79
2023/09/26 09:51:11;;;;;;;6.00;3.53;;;20.50;99.90;;;;;;5067201;28;20113;-79
2023/09/26 09:53:38;;;;;;;6.32;3.55;;;20.70;99.90;;;;;;5066628;28;20036;-79
2023/09/26 09:56:08;;;;;;;7.72;4.00;;;20.80;99.90;;;;;;5065158;28;20123;-79
2023/09/26 09:58:40;;;;;;;10.23;4.45;;;20.80;99.90;;;;;;5071234;28;20044;-80
2023/09/26 10:01:06;;;;;;;6.68;4.70;;;20.90;99.90;;;;;;5067442;28;20059;-79
2023/09/26 10:03:33;;;;;;;6.47;4.22;;;20.90;99.90;;;;;;5067426;28;20485;-79
2023/09/26 10:06:00;;;;;;;6.70;3.78;;;21.00;99.90;;;;;;5074799;28;20021;-80
2023/09/26 10:08:27;;;;;;;5.43;3.15;;;21.10;99.90;;;;;;5066866;28;20028;-77
2023/09/26 10:10:54;;;;;;;5.88;3.35;;;21.20;99.90;;;;;;5073448;28;20229;-79
2023/09/26 10:13:20;;;;;;;15.50;3.83;;;21.30;99.90;;;;;;5066496;28;20508;-79
2023/09/26 10:16:06;;;;;;;5.75;2.83;;;21.40;99.90;;;;;;5072454;28;20040;-77
2023/09/26 10:18:43;;;;;;;8.52;2.55;;;21.60;99.90;;;;;;5073569;28;20060;-79
2023/09/26 10:21:21;;;;;;;4.85;2.70;;;21.70;99.90;;;;;;5068644;28;20032;-79
2023/09/26 10:24:05;;;;;;;5.53;2.13;;;21.80;99.90;;;;;;5072765;28;20036;-77
2023/09/26 10:26:50;;;;;;;3.80;2.20;;;21.70;99.90;;;;;;5073098;28;20020;-79
2023/09/26 10:29:26;;;;;;;4.45;1.83;;;21.80;99.90;;;;;;5056221;28;20067;-77
2023/09/26 10:31:55;;;;;;;9.20;2.42;;;21.90;99.90;;;;;;5069817;28;20070;-79
2023/09/26 10:34:29;;;;;;;4.68;2.10;;;22.00;99.90;;;;;;5068439;28;20028;-79
2023/09/26 10:36:56;;;;;;;3.80;2.20;;;22.00;99.90;;;;;;5069680;28;20052;-75
2023/09/26 10:39:39;;;;;;;2.50;2.30;;;22.20;99.90;;;;;;5049705;28;20163;-75
2023/09/26 10:42:22;;;;;;;5.00;1.80;;;22.30;99.90;;;;;;5070209;28;20068;-78
2023/09/26 10:44:51;;;;;;;;;;;22.30;99.90;;;;;;5070061;28;20028;-75
2023/09/26 10:47:19;;;;;;;5.65;2.03;;;22.10;99.90;;;;;;5074260;28;19912;-75
2023/09/26 10:49:45;;;;;;;4.32;2.67;;;22.20;99.90;;;;;;5070225;28;20017;-75
2023/09/26 10:52:12;;;;;;;6.07;2.72;;;22.20;99.90;;;;;;5068992;28;20073;-75
2023/09/26 10:54:41;;;;;;;4.93;1.75;;;22.30;99.90;;;;;;5070239;28;20036;-77
2023/09/26 10:57:07;;;;;;;6.38;2.25;;;22.40;99.90;;;;;;5066821;28;20499;-75
2023/09/26 10:59:33;;;;;;;4.88;1.92;;;22.40;99.90;;;;;;5071377;28;20039;-76
2023/09/26 11:02:01;;;;;;;5.70;2.22;;;22.40;99.90;;;;;;5073759;28;20097;-76
2023/09/26 11:04:29;;;;;;;5.78;1.80;;;22.50;99.90;;;;;;5067615;28;20082;-75
2023/09/26 11:06:58;;;;;;;3.63;1.80;;;22.60;99.90;;;;;;5068711;28;20113;-77
2023/09/26 11:09:27;;;;;;;6.03;2.15;;;22.60;99.90;;;;;;5069006;28;20027;-77
2023/09/26 11:11:56;;;;;;;6.75;2.10;;;22.60;99.90;;;;;;5069593;28;20043;-76
2023/09/26 11:14:26;;;;;;;4.10;1.95;;;22.40;99.90;;;;;;5069495;28;20055;-76
2023/09/26 11:16:53;;;;;;;3.85;2.28;;;22.40;99.90;;;;;;5063976;28;20032;-76
2023/09/26 11:19:21;;;;;;;3.10;2.10;;;22.40;99.90;;;;;;5064777;28;20118;-76
2023/09/26 11:21:50;;;;;;;2.10;1.90;;;22.30;99.90;;;;;;5068824;28;20029;-76
2023/09/26 11:24:20;;;;;;;6.18;2.45;;;22.30;99.90;;;;;;5069106;28;20029;-77
2023/09/26 11:26:46;;;;;;;6.25;2.60;;;22.30;99.90;;;;;;5074496;28;20113;-76
2023/09/26 11:29:16;;;;;;;6.07;2.28;;;22.30;99.90;;;;;;5050117;28;20384;-76
2023/09/26 11:31:43;;;;;;;3.53;2.25;;;22.30;99.90;;;;;;5071560;28;20055;-76
2023/09/26 11:34:09;;;;;;;2.50;2.10;;;22.30;99.90;;;;;;5068601;28;20401;-76
2023/09/26 11:36:37;;;;;;;4.55;2.75;;;22.30;99.90;;;;;;5067319;28;20048;-76
2023/09/26 11:39:05;;;;;;;3.75;2.30;;;22.20;99.90;;;;;;5069449;28;20017;-76
2023/09/26 11:41:31;;;;;;;4.90;2.25;;;22.20;99.90;;;;;;5067199;28;20028;-75
2023/09/26 11:44:10;;;;;;;5.97;2.22;;;22.20;99.90;;;;;;5069924;28;20448;-76
2023/09/26 11:46:46;;;;;;;4.55;2.50;;;22.30;99.90;;;;;;5066776;28;20074;-78
2023/09/26 11:49:13;;;;;;;5.45;2.78;;;22.30;99.90;;;;;;5070290;28;20039;-76
2023/09/26 11:51:39;;;;;;;3.55;2.38;;;22.30;99.90;;;;;;5069779;28;20024;-77
2023/09/26 11:54:06;;;;;;;4.03;2.45;;;22.20;99.90;;;;;;5060480;28;20028;-77
2023/09/26 11:56:33;;;;;;;5.63;2.22;;;22.30;99.90;;;;;;5068005;28;20047;-77
2023/09/26 11:59:00;;;;;;;3.45;2.60;;;22.50;99.90;;;;;;5067831;28;20017;-77
2023/09/26 12:01:26;;;;;;;3.35;2.25;;;22.50;99.90;;;;;;5050058;28;20393;-77
2023/09/26 12:03:51;;;;;;;3.70;2.50;;;22.50;99.90;;;;;;5068782;28;20024;-76
2023/09/26 12:06:17;;;;;;;4.07;2.63;;;22.50;99.90;;;;;;5067313;28;20065;-77
2023/09/26 12:08:43;;;;;;;3.45;2.38;;;22.50;99.90;;;;;;5070090;28;20039;-76
2023/09/26 12:11:12;;;;;;;4.97;2.22;;;22.60;99.90;;;;;;5068153;28;20082;-76
2023/09/26 12:13:38;;;;;;;4.55;3.00;;;22.70;99.90;;;;;;5066912;28;20024;-77
2023/09/26 12:16:04;;;;;;;4.93;2.50;;;22.60;99.90;;;;;;5067526;28;20082;-76
2023/09/26 12:18:31;;;;;;;4.50;2.47;;;22.60;99.90;;;;;;5072982;28;20087;-77
2023/09/26 12:20:57;;;;;;;7.45;2.30;;;22.70;99.90;;;;;;5071530;28;20021;-77
2023/09/26 12:23:24;;;;;;;4.30;1.92;;;22.70;99.90;;;;;;5067397;28;20525;-77
2023/09/26 12:25:50;;;;;;;7.15;2.45;;;22.80;99.90;;;;;;5066854;28;20501;-77
2023/09/26 12:28:21;;;;;;;3.78;2.67;;;22.90;99.90;;;;;;5068736;28;20039;-77
2023/09/26 12:30:48;;;;;;;3.50;2.30;;;23.00;99.90;;;;;;5068984;28;20034;-78
2023/09/26 12:33:13;;;;;;;4.38;2.60;;;23.00;99.90;;;;;;5065294;28;20326;-78
2023/09/26 12:35:39;;;;;;;5.38;2.25;;;23.10;99.90;;;;;;5070200;28;20068;-78
2023/09/26 12:38:05;;;;;;;3.75;1.92;;;23.10;99.90;;;;;;5069355;28;20028;-78